Time;durP1;ratioP1;P1;durP2;ratioP2;P2;SDS_P1;SDS_P2;PMS_P1;PMS_P2;Temp;Humidity;BMP_temperature;BMP_pressure;BME280_temperature;BME280_humidity;BME280_pressure;Samples;Min_cycle;Max_cycle;Signal;HPM_P1;HPM_P2
2022/11/23 00:01:57;;;;;;;10.27;6.77;;;;;;;;;;4975623;28;20257;-76
2022/11/23 00:04:29;;;;;;;7.93;6.90;;;;;;;;;;4964089;28;20354;-75
2022/11/23 00:06:57;;;;;;;8.07;6.43;;;;;;;;;;4960590;28;20234;-74
2022/11/23 00:09:27;;;;;;;7.10;6.50;;;;;;;;;;4980255;28;20213;-76
2022/11/23 00:11:52;;;;;;;8.97;6.67;;;;;;;;;;4973537;28;20234;-75
2022/11/23 00:14:20;;;;;;;15.33;5.93;;;;;;;;;;4979366;28;20230;-75
2022/11/23 00:16:50;;;;;;;6.87;6.17;;;;;;;;;;4948933;28;20294;-75
2022/11/23 00:19:25;;;;;;;7.87;6.03;;;;;;;;;;4957938;28;20227;-77
2022/11/23 00:21:50;;;;;;;8.17;6.77;;;;;;;;;;4956027;28;20228;-76
2022/11/23 00:24:18;;;;;;;7.80;6.60;;;;;;;;;;4964019;28;20225;-75
2022/11/23 00:26:46;;;;;;;7.60;6.40;;;;;;;;;;4964661;28;20755;-75
2022/11/23 00:29:17;;;;;;;6.83;6.10;;;;;;;;;;4975715;28;20237;-75
2022/11/23 00:31:47;;;;;;;8.20;6.77;;;;;;;;;;4973136;28;20713;-75
2022/11/23 00:34:17;;;;;;;6.67;5.97;;;;;;;;;;4958176;28;20708;-75
2022/11/23 00:36:43;;;;;;;7.27;6.00;;;;;;;;;;4962207;28;20314;-75
2022/11/23 00:39:15;;;;;;;9.07;6.43;;;;;;;;;;4979459;28;20229;-75
2022/11/23 00:41:41;;;;;;;6.43;5.73;;;;;;;;;;4945549;28;20246;-76
2022/11/23 00:44:07;;;;;;;7.00;6.30;;;;;;;;;;4977394;28;20854;-75
2022/11/23 00:46:32;;;;;;;7.63;6.10;;;;;;;;;;4959538;28;20237;-76
2022/11/23 00:49:08;;;;;;;7.37;5.87;;;;;;;;;;4963804;28;20735;-75
2022/11/23 00:51:35;;;;;;;8.17;6.13;;;;;;;;;;4950771;28;20227;-75
2022/11/23 00:54:01;;;;;;;8.10;5.53;;;;;;;;;;4942647;28;20317;-73
2022/11/23 00:56:27;;;;;;;6.87;5.57;;;;;;;;;;4978125;28;20222;-77
2022/11/23 00:58:59;;;;;;;7.30;5.83;;;;;;;;;;4961145;28;20253;-76
2022/11/23 01:01:32;;;;;;;6.90;5.63;;;;;;;;;;4967252;28;20227;-74
2022/11/23 01:03:59;;;;;;;6.60;5.90;;;;;;;;;;4976139;28;20226;-75
2022/11/23 01:06:32;;;;;;;7.47;5.13;;;;;;;;;;4957176;28;20227;-76
2022/11/23 01:09:06;;;;;;;5.40;4.90;;;;;;;;;;4976865;28;20221;-76
2022/11/23 01:11:31;;;;;;;8.03;5.00;;;;;;;;;;4941138;28;20233;-75
2022/11/23 01:14:02;;;;;;;5.40;4.90;;;;;;;;;;4973811;28;20225;-75
2022/11/23 01:16:34;;;;;;;8.23;5.47;;;;;;;;;;4978439;28;20226;-76
2022/11/23 01:19:03;;;;;;;5.57;5.07;;;;;;;;;;4959544;28;20272;-75
2022/11/23 01:21:31;;;;;;;8.20;5.13;;;;;;;;;;4966163;28;20309;-75
2022/11/23 01:23:57;;;;;;;6.20;5.27;;;;;;;;;;4954187;28;20313;-76
2022/11/23 01:26:23;;;;;;;7.10;5.20;;;;;;;;;;4958408;28;20238;-75
2022/11/23 01:28:49;;;;;;;5.13;4.63;;;;;;;;;;4945150;28;20312;-75
2022/11/23 01:31:19;;;;;;;6.83;4.77;;;;;;;;;;4967053;28;20692;-75
2022/11/23 01:33:46;;;;;;;5.03;4.63;;;;;;;;;;4965471;28;20625;-75
2022/11/23 01:36:16;;;;;;;5.70;5.03;;;;;;;;;;4957813;28;20224;-76
2022/11/23 01:38:42;;;;;;;5.33;4.67;;;;;;;;;;4976341;28;20223;-75
2022/11/23 01:41:13;;;;;;;6.27;4.60;;;;;;;;;;4927795;28;20280;-75
2022/11/23 01:43:41;;;;;;;5.13;4.33;;;;;;;;;;4964815;28;20388;-75
2022/11/23 01:46:10;;;;;;;7.43;4.63;;;;;;;;;;4956700;28;20308;-75
2022/11/23 01:49:02;;;;;;;5.13;4.53;;;;;;;;;;4974960;28;20281;-75
2022/11/23 01:51:32;;;;;;;4.50;4.10;;;;;;;;;;4958871;28;20211;-75
2022/11/23 01:54:03;;;;;;;6.13;4.53;;;;;;;;;;4976621;28;20238;-75
2022/11/23 01:56:34;;;;;;;5.50;4.43;;;;;;;;;;4951995;28;20231;-74
2022/11/23 01:59:03;;;;;;;5.13;4.57;;;;;;;;;;4952506;28;20766;-74
2022/11/23 02:01:33;;;;;;;7.10;4.37;;;;;;;;;;4943388;28;20229;-75
2022/11/23 02:04:03;;;;;;;5.23;4.60;;;;;;;;;;4977490;28;20227;-75
2022/11/23 02:06:29;;;;;;;6.80;4.27;;;;;;;;;;4959835;28;20370;-74
2022/11/23 02:08:57;;;;;;;5.63;4.73;;;;;;;;;;4977953;28;21158;-75
2022/11/23 02:11:22;;;;;;;6.13;4.87;;;;;;;;;;4976786;28;20320;-74
2022/11/23 02:13:49;;;;;;;5.20;4.27;;;;;;;;;;4973828;28;20231;-74
2022/11/23 02:16:17;;;;;;;6.57;4.40;;;;;;;;;;4957295;28;20615;-75
2022/11/23 02:18:45;;;;;;;4.80;4.33;;;;;;;;;;4972929;28;20673;-75
2022/11/23 02:21:13;;;;;;;6.87;4.80;;;;;;;;;;4958275;28;20261;-77
2022/11/23 02:24:31;;;;;;;4.90;4.10;;;;;;;;;;4974715;28;20234;-74
2022/11/23 02:26:57;;;;;;;5.13;4.07;;;;;;;;;;4907963;29;20235;-74
2022/11/23 02:29:25;;;;;;;20.90;5.00;;;;;;;;;;4888791;29;20303;-75
2022/11/23 02:31:54;;;;;;;6.97;4.70;;;;;;;;;;4913925;28;20912;-75
2022/11/23 02:34:22;;;;;;;6.10;3.97;;;;;;;;;;4964729;28;20237;-74
2022/11/23 02:36:52;;;;;;;5.00;4.03;;;;;;;;;;4975348;28;20223;-74
2022/11/23 02:39:41;;;;;;;4.07;3.67;;;;;;;;;;4967269;28;20223;-74
2022/11/23 02:42:14;;;;;;;4.23;3.83;;;;;;;;;;4958913;28;20292;-74
2022/11/23 02:45:04;;;;;;;7.77;4.23;;;;;;;;;;4959637;28;20239;-74
2022/11/23 02:47:29;;;;;;;5.23;3.90;;;;;;;;;;4953967;28;20317;-75
2022/11/23 02:50:04;;;;;;;7.43;3.83;;;;;;;;;;4975421;28;20222;-76
2022/11/23 02:52:30;;;;;;;3.83;3.53;;;;;;;;;;4960176;28;20231;-74
2022/11/23 02:54:58;;;;;;;6.60;4.17;;;;;;;;;;4957178;28;20233;-75
2022/11/23 02:57:26;;;;;;;4.87;4.33;;;;;;;;;;4973501;28;20226;-75
2022/11/23 02:59:54;;;;;;;4.10;3.70;;;;;;;;;;4957223;28;20222;-74
2022/11/23 03:02:22;;;;;;;4.33;3.93;;;;;;;;;;4969310;28;20660;-75
2022/11/23 03:04:50;;;;;;;5.47;3.83;;;;;;;;;;4961360;28;20253;-74
2022/11/23 03:07:19;;;;;;;4.37;3.93;;;;;;;;;;4962393;28;20226;-74
2022/11/23 03:09:47;;;;;;;5.23;3.67;;;;;;;;;;4979202;28;20225;-74
2022/11/23 03:12:15;;;;;;;4.80;3.40;;;;;;;;;;4961442;28;20234;-74
2022/11/23 03:14:43;;;;;;;4.13;3.70;;;;;;;;;;4975042;28;20606;-74
2022/11/23 03:17:09;;;;;;;3.70;3.30;;;;;;;;;;4968000;28;20225;-75
2022/11/23 03:19:42;;;;;;;4.90;3.47;;;;;;;;;;4952311;28;20310;-74
2022/11/23 03:22:14;;;;;;;5.20;3.20;;;;;;;;;;4974834;28;20753;-74
2022/11/23 03:24:42;;;;;;;5.37;3.77;;;;;;;;;;4973377;28;20219;-76
2022/11/23 03:27:16;;;;;;;4.23;3.30;;;;;;;;;;4954621;28;20226;-75
2022/11/23 03:29:47;;;;;;;3.93;3.53;;;;;;;;;;4974480;28;20306;-75
2022/11/23 03:32:18;;;;;;;5.70;3.70;;;;;;;;;;4973803;28;20241;-75
2022/11/23 03:34:47;;;;;;;5.30;3.30;;;;;;;;;;4975778;28;20226;-73
2022/11/23 03:37:17;;;;;;;4.13;3.37;;;;;;;;;;4958085;28;20716;-73
2022/11/23 03:39:44;;;;;;;4.90;3.17;;;;;;;;;;4958385;28;20227;-75
2022/11/23 03:42:38;;;;;;;5.80;3.50;;;;;;;;;;4975186;28;20306;-75
2022/11/23 03:45:09;;;;;;;4.07;3.47;;;;;;;;;;4955566;28;20238;-73
2022/11/23 03:47:40;;;;;;;7.83;3.40;;;;;;;;;;4976618;28;20309;-75
2022/11/23 03:50:06;;;;;;;5.60;3.43;;;;;;;;;;4966443;28;20601;-75
2022/11/23 03:52:34;;;;;;;8.00;3.90;;;;;;;;;;4969765;28;20232;-73
2022/11/23 03:55:00;;;;;;;3.63;3.33;;;;;;;;;;4958575;28;20222;-74
2022/11/23 03:57:28;;;;;;;6.57;3.53;;;;;;;;;;4971831;28;20254;-74
2022/11/23 03:59:53;;;;;;;5.17;3.30;;;;;;;;;;4954650;28;20244;-73
2022/11/23 04:02:19;;;;;;;6.27;3.60;;;;;;;;;;4955687;28;20223;-75
2022/11/23 04:05:00;;;;;;;5.33;3.40;;;;;;;;;;4958158;28;20222;-75
2022/11/23 04:07:54;;;;;;;5.00;3.13;;;;;;;;;;4944124;28;20415;-73
2022/11/23 04:10:25;;;;;;;3.90;3.50;;;;;;;;;;4961213;28;20305;-74
2022/11/23 04:13:00;;;;;;;3.03;2.73;;;;;;;;;;4964141;28;20226;-74
2022/11/23 04:15:28;;;;;;;5.50;3.57;;;;;;;;;;4963447;28;20771;-74
2022/11/23 04:17:56;;;;;;;3.97;3.07;;;;;;;;;;4964329;28;20226;-74
2022/11/23 04:20:22;;;;;;;4.13;3.17;;;;;;;;;;4958931;28;20218;-74
2022/11/23 04:22:48;;;;;;;3.33;2.97;;;;;;;;;;4963540;28;20237;-74
2022/11/23 04:25:19;;;;;;;3.53;3.23;;;;;;;;;;4962688;28;20284;-74
2022/11/23 04:27:49;;;;;;;6.80;5.03;;;;;;;;;;4960952;28;20241;-75
2022/11/23 04:30:15;;;;;;;4.63;3.40;;;;;;;;;;4956513;28;20700;-74
2022/11/23 04:32:47;;;;;;;3.60;3.23;;;;;;;;;;4983092;28;20293;-74
2022/11/23 04:35:13;;;;;;;3.07;2.70;;;;;;;;;;4976486;28;20218;-74
2022/11/23 04:37:43;;;;;;;3.17;2.80;;;;;;;;;;4964149;28;20233;-76
2022/11/23 04:40:14;;;;;;;4.07;3.00;;;;;;;;;;4979247;28;20221;-75
2022/11/23 04:42:54;;;;;;;3.43;2.90;;;;;;;;;;4960483;28;20225;-74
2022/11/23 04:45:23;;;;;;;4.40;2.90;;;;;;;;;;4962565;28;20218;-74
2022/11/23 04:47:48;;;;;;;3.10;2.60;;;;;;;;;;4949377;28;20248;-74
2022/11/23 04:50:15;;;;;;;5.73;3.00;;;;;;;;;;4965097;28;20324;-74
2022/11/23 04:52:44;;;;;;;4.23;3.00;;;;;;;;;;4955652;28;20574;-74
2022/11/23 04:55:19;;;;;;;2.90;2.60;;;;;;;;;;4937541;28;20779;-74
2022/11/23 04:57:53;;;;;;;4.93;3.17;;;;;;;;;;4978297;28;20230;-74
2022/11/23 05:00:21;;;;;;;5.37;2.90;;;;;;;;;;4974432;28;20257;-74
2022/11/23 05:02:49;;;;;;;3.50;2.90;;;;;;;;;;4961668;28;20215;-74
2022/11/23 05:05:40;;;;;;;5.63;2.93;;;;;;;;;;4981990;28;20648;-76
2022/11/23 05:08:07;;;;;;;3.43;2.63;;;;;;;;;;4977652;28;20265;-75
2022/11/23 05:10:50;;;;;;;3.30;2.70;;;;;;;;;;4964803;28;20320;-73
2022/11/23 05:13:23;;;;;;;4.17;3.23;;;;;;;;;;4961094;28;20300;-74
2022/11/23 05:15:51;;;;;;;4.60;2.53;;;;;;;;;;4964014;28;20222;-75
2022/11/23 05:18:23;;;;;;;3.40;2.87;;;;;;;;;;4950710;28;20659;-76
2022/11/23 05:20:49;;;;;;;3.63;2.33;;;;;;;;;;4955578;28;20223;-76
2022/11/23 05:23:15;;;;;;;3.33;2.93;;;;;;;;;;4953741;28;20305;-75
2022/11/23 05:25:43;;;;;;;5.07;2.80;;;;;;;;;;4975337;28;20232;-75
2022/11/23 05:28:16;;;;;;;2.73;2.50;;;;;;;;;;4976358;28;20249;-75
2022/11/23 05:30:41;;;;;;;4.23;2.93;;;;;;;;;;4969039;28;20262;-76
2022/11/23 05:33:10;;;;;;;3.90;2.70;;;;;;;;;;4958353;28;20218;-74
2022/11/23 05:35:37;;;;;;;4.47;2.90;;;;;;;;;;4957499;28;20306;-73
2022/11/23 05:38:05;;;;;;;3.97;2.60;;;;;;;;;;4976818;28;20228;-78
2022/11/23 05:40:34;;;;;;;3.03;2.27;;;;;;;;;;4959887;28;20719;-74
2022/11/23 05:43:05;;;;;;;3.27;2.60;;;;;;;;;;4978797;28;20222;-75
2022/11/23 05:45:30;;;;;;;3.07;2.70;;;;;;;;;;4943475;28;20761;-74
2022/11/23 05:47:57;;;;;;;5.27;2.90;;;;;;;;;;4961281;28;20409;-76
2022/11/23 05:50:41;;;;;;;3.43;2.50;;;;;;;;;;4961933;28;20241;-75
2022/11/23 05:53:26;;;;;;;3.37;2.50;;;;;;;;;;4976252;28;20224;-73
2022/11/23 05:56:05;;;;;;;4.13;2.43;;;;;;;;;;4955882;28;20280;-76
2022/11/23 05:58:38;;;;;;;3.77;2.63;;;;;;;;;;4970973;28;20218;-77
2022/11/23 06:01:07;;;;;;;4.20;2.43;;;;;;;;;;4951797;28;20234;-76
2022/11/23 06:03:39;;;;;;;4.97;2.70;;;;;;;;;;4960846;28;20218;-76
2022/11/23 06:06:07;;;;;;;5.70;3.20;;;;;;;;;;4955485;28;20237;-75
2022/11/23 06:08:40;;;;;;;4.70;2.93;;;;;;;;;;4979152;28;20218;-76
2022/11/23 06:11:08;;;;;;;3.97;2.90;;;;;;;;;;4968116;28;20644;-77
2022/11/23 06:13:34;;;;;;;3.87;2.70;;;;;;;;;;4970165;28;20268;-75
2022/11/23 06:16:00;;;;;;;5.43;2.83;;;;;;;;;;4977434;28;20680;-76
2022/11/23 06:18:33;;;;;;;2.97;2.70;;;;;;;;;;4968205;28;20709;-75
2022/11/23 06:21:01;;;;;;;5.20;2.70;;;;;;;;;;4956127;28;20233;-76
2022/11/23 06:23:27;;;;;;;6.33;2.93;;;;;;;;;;4974516;28;20221;-75
2022/11/23 06:26:00;;;;;;;6.10;3.00;;;;;;;;;;4957728;28;20304;-77
2022/11/23 06:28:27;;;;;;;4.20;3.27;;;;;;;;;;4949695;28;20226;-76
2022/11/23 06:31:00;;;;;;;4.47;3.40;;;;;;;;;;4959646;28;20253;-75
2022/11/23 06:33:27;;;;;;;4.07;3.23;;;;;;;;;;4960563;28;20229;-76
2022/11/23 06:35:54;;;;;;;4.27;2.57;;;;;;;;;;4978856;28;20218;-76
2022/11/23 06:38:21;;;;;;;4.73;2.63;;;;;;;;;;4971171;28;20226;-75
2022/11/23 06:40:58;;;;;;;4.33;2.87;;;;;;;;;;4957070;28;20223;-75
2022/11/23 06:43:25;;;;;;;3.00;2.50;;;;;;;;;;4957577;28;20234;-75
2022/11/23 06:45:53;;;;;;;4.40;2.70;;;;;;;;;;4956952;28;20306;-76
2022/11/23 06:48:19;;;;;;;5.67;2.67;;;;;;;;;;4955977;28;20234;-76
2022/11/23 06:50:46;;;;;;;5.67;2.57;;;;;;;;;;4971954;28;20668;-76
2022/11/23 06:53:14;;;;;;;3.90;2.80;;;;;;;;;;4968098;28;20231;-76
2022/11/23 06:55:51;;;;;;;2.47;2.27;;;;;;;;;;4958437;28;20799;-76
2022/11/23 06:58:18;;;;;;;3.80;3.00;;;;;;;;;;4958707;28;20878;-76
2022/11/23 07:00:44;;;;;;;2.90;2.67;;;;;;;;;;4978350;28;20226;-76
2022/11/23 07:03:22;;;;;;;3.57;2.80;;;;;;;;;;4951978;28;20225;-76
2022/11/23 07:05:52;;;;;;;4.97;2.63;;;;;;;;;;4962935;28;20824;-76
2022/11/23 07:08:26;;;;;;;4.83;2.70;;;;;;;;;;4952344;28;20709;-75
2022/11/23 07:11:01;;;;;;;5.87;2.30;;;;;;;;;;4964384;28;20306;-77
2022/11/23 07:13:30;;;;;;;4.33;2.60;;;;;;;;;;4978157;28;20231;-75
2022/11/23 07:15:57;;;;;;;4.83;2.80;;;;;;;;;;4959852;28;20227;-77
2022/11/23 07:18:26;;;;;;;3.93;2.57;;;;;;;;;;4965153;28;20298;-75
2022/11/23 07:20:57;;;;;;;4.77;2.90;;;;;;;;;;4985049;23;20344;-80
2022/11/23 07:23:23;;;;;;;8.23;3.20;;;;;;;;;;4969651;28;20227;-81
2022/11/23 07:25:49;;;;;;;15.30;12.97;;;;;;;;;;4964906;28;20232;-83
2022/11/23 07:28:15;;;;;;;5.67;3.60;;;;;;;;;;4948273;28;20228;-81
2022/11/23 07:30:42;;;;;;;5.73;3.37;;;;;;;;;;4966229;28;20226;-83
2022/11/23 07:33:09;;;;;;;3.67;2.47;;;;;;;;;;4957242;28;20295;-81
2022/11/23 07:35:37;;;;;;;6.63;2.93;;;;;;;;;;4950437;28;20242;-81
2022/11/23 07:38:03;;;;;;;5.20;2.97;;;;;;;;;;4960824;28;20232;-81
2022/11/23 07:40:28;;;;;;;4.40;3.00;;;;;;;;;;4959623;28;20238;-81
2022/11/23 07:43:01;;;;;;;3.90;2.93;;;;;;;;;;4966646;28;20244;-81
2022/11/23 07:45:27;;;;;;;4.87;2.57;;;;;;;;;;4963016;28;20251;-81
2022/11/23 07:48:02;;;;;;;3.70;2.90;;;;;;;;;;4948354;28;20260;-83
2022/11/23 07:50:28;;;;;;;3.67;2.70;;;;;;;;;;4947733;28;20279;-82
2022/11/23 07:52:54;;;;;;;4.40;2.77;;;;;;;;;;4963967;28;20232;-81
2022/11/23 07:55:19;;;;;;;5.17;2.47;;;;;;;;;;4965882;28;20231;-81
2022/11/23 07:57:50;;;;;;;4.10;2.60;;;;;;;;;;4940847;28;20224;-83
2022/11/23 08:00:19;;;;;;;4.67;3.00;;;;;;;;;;4931033;28;20223;-82
2022/11/23 08:02:44;;;;;;;5.90;3.00;;;;;;;;;;4946180;28;20227;-81
2022/11/23 08:05:12;;;;;;;3.00;2.50;;;;;;;;;;4966229;28;20223;-83
2022/11/23 08:07:41;;;;;;;4.77;2.93;;;;;;;;;;4965958;28;20247;-80
2022/11/23 08:10:06;;;;;;;6.55;3.40;;;;;;;;;;4945318;28;20447;-81
2022/11/23 08:12:32;;;;;;;6.93;3.10;;;;;;;;;;4953001;28;20227;-80
2022/11/23 08:14:57;;;;;;;6.17;3.07;;;;;;;;;;4961187;28;20646;-82
2022/11/23 08:17:23;;;;;;;3.80;2.77;;;;;;;;;;4936553;28;20685;-82
2022/11/23 08:19:49;;;;;;;3.47;2.70;;;;;;;;;;4953260;28;20235;-81
2022/11/23 08:22:15;;;;;;;5.23;3.30;;;;;;;;;;4962342;28;20226;-81
2022/11/23 08:24:41;;;;;;;4.73;2.67;;;;;;;;;;4942840;28;20290;-80
2022/11/23 08:27:06;;;;;;;6.87;3.10;;;;;;;;;;4945830;28;21025;-81
2022/11/23 08:29:32;;;;;;;3.50;2.60;;;;;;;;;;4963071;28;20220;-81
2022/11/23 08:31:57;;;;;;;4.13;2.57;;;;;;;;;;4964644;28;20276;-80
2022/11/23 08:34:23;;;;;;;5.03;2.53;;;;;;;;;;4966658;28;20230;-82
2022/11/23 08:36:51;;;;;;;2.87;2.57;;;;;;;;;;4958843;28;20282;-82
2022/11/23 08:39:18;;;;;;;3.47;2.60;;;;;;;;;;4971193;28;20216;-81
2022/11/23 08:41:44;;;;;;;4.17;2.50;;;;;;;;;;4970677;28;20263;-81
2022/11/23 08:44:11;;;;;;;5.93;2.43;;;;;;;;;;4963036;28;20224;-81
2022/11/23 08:46:42;;;;;;;6.03;2.80;;;;;;;;;;4974608;28;20242;-80
2022/11/23 08:49:07;;;;;;;7.47;2.70;;;;;;;;;;4974750;28;20232;-81
2022/11/23 08:51:49;;;;;;;5.87;2.53;;;;;;;;;;4932777;28;20279;-83
2022/11/23 08:54:17;;;;;;;4.47;2.70;;;;;;;;;;4970939;28;20358;-83
2022/11/23 08:56:43;;;;;;;4.03;2.77;;;;;;;;;;4967007;28;20236;-81
2022/11/23 08:59:11;;;;;;;3.87;2.80;;;;;;;;;;4936010;28;20255;-79
2022/11/23 09:01:37;;;;;;;3.47;2.47;;;;;;;;;;4957265;28;20281;-86
2022/11/23 09:04:03;;;;;;;6.00;2.53;;;;;;;;;;4966715;28;20505;-80
2022/11/23 09:06:32;;;;;;;4.63;2.57;;;;;;;;;;4937922;28;20228;-82
2022/11/23 09:08:58;;;;;;;2.97;2.40;;;;;;;;;;4941681;28;20259;-82
2022/11/23 09:11:30;;;;;;;3.60;2.50;;;;;;;;;;4957239;28;20548;-81
2022/11/23 09:14:08;;;;;;;3.67;2.30;;;;;;;;;;4933166;29;20224;-84
2022/11/23 09:16:36;;;;;;;3.63;2.47;;;;;;;;;;4960181;28;20231;-82
2022/11/23 09:19:02;;;;;;;3.40;2.50;;;;;;;;;;4954534;28;20688;-80
2022/11/23 09:21:32;;;;;;;7.20;2.63;;;;;;;;;;4945030;28;20251;-81
2022/11/23 09:23:58;;;;;;;4.90;2.63;;;;;;;;;;4958536;28;20228;-83
2022/11/23 09:26:24;;;;;;;3.87;2.30;;;;;;;;;;4951686;28;20239;-82
2022/11/23 09:29:08;;;;;;;4.87;2.63;;;;;;;;;;4952390;28;20235;-81
2022/11/23 09:31:38;;;;;;;3.17;2.10;;;;;;;;;;4967670;28;20827;-80
2022/11/23 09:34:03;;;;;;;4.80;2.57;;;;;;;;;;4962070;28;20235;-82
2022/11/23 09:36:34;;;;;;;4.57;2.37;;;;;;;;;;4961946;28;20279;-81
2022/11/23 09:39:04;;;;;;;2.27;1.73;;;;;;;;;;4931092;28;20224;-80
2022/11/23 09:41:51;;;;;;;4.30;2.23;;;;;;;;;;4946359;28;21518;-80
2022/11/23 09:44:41;;;;;;;4.20;2.13;;;;;;;;;;4955431;28;20228;-81
2022/11/23 09:47:34;;;;;;;4.93;2.57;;;;;;;;;;4927033;28;20293;-80
2022/11/23 09:50:10;;;;;;;3.87;2.30;;;;;;;;;;4961305;28;20251;-80
2022/11/23 09:52:36;;;;;;;4.30;2.60;;;;;;;;;;4946730;28;20228;-80
2022/11/23 09:55:23;;;;;;;4.80;2.37;;;;;;;;;;4947986;28;20228;-82
2022/11/23 09:57:48;;;;;;;4.33;2.53;;;;;;;;;;4950764;28;20242;-79
2022/11/23 10:00:20;;;;;;;3.20;1.80;;;;;;;;;;4943085;28;20252;-82
2022/11/23 10:02:46;;;;;;;3.40;2.37;;;;;;;;;;4964300;28;20370;-80
2022/11/23 10:08:39;;;;;;;4.47;2.57;;;;;;;;;;4957230;28;20758;-78
2022/11/23 10:11:13;;;;;;;5.20;2.60;;;;;;;;;;4870768;28;20485;-78
2022/11/23 10:13:42;;;;;;;3.27;2.10;;;;;;;;;;4933953;28;20237;-80
2022/11/23 10:16:31;;;;;;;2.70;2.10;;;;;;;;;;4930297;28;20230;-78
2022/11/23 10:19:00;;;;;;;3.20;1.80;;;;;;;;;;4914452;28;20705;-79
2022/11/23 10:22:03;;;;;;;3.80;2.20;;;;;;;;;;4928995;28;20238;-78
2022/11/23 10:24:32;;;;;;;4.90;2.37;;;;;;;;;;4955640;28;20226;-78
2022/11/23 10:26:57;;;;;;;4.37;1.97;;;;;;;;;;4919561;28;20494;-79
2022/11/23 10:29:27;;;;;;;4.47;2.17;;;;;;;;;;4936887;28;20678;-79
2022/11/23 10:31:55;;;;;;;3.83;2.33;;;;;;;;;;4936625;28;20227;-79
2022/11/23 10:34:39;;;;;;;3.53;1.93;;;;;;;;;;4932965;28;20677;-78
2022/11/23 10:37:10;;;;;;;2.50;1.80;;;;;;;;;;4958604;28;20219;-80
2022/11/23 10:39:35;;;;;;;2.67;1.97;;;;;;;;;;4932805;28;20245;-80
2022/11/23 10:42:08;;;;;;;3.13;1.90;;;;;;;;;;4946362;28;20227;-80
2022/11/23 10:44:37;;;;;;;2.70;1.77;;;;;;;;;;4923074;28;20249;-79
2022/11/23 10:47:02;;;;;;;3.13;2.07;;;;;;;;;;4932507;28;20237;-79
2022/11/23 10:49:30;;;;;;;3.20;2.03;;;;;;;;;;4931967;28;20247;-78
2022/11/23 10:52:19;;;;;;;4.67;2.20;;;;;;;;;;4932417;28;20222;-79
2022/11/23 10:54:44;;;;;;;3.37;1.90;;;;;;;;;;4941769;28;20653;-80
2022/11/23 10:57:28;;;;;;;4.00;2.00;;;;;;;;;;4949912;28;20261;-80
2022/11/23 11:00:18;;;;;;;2.37;1.53;;;;;;;;;;4939296;28;20218;-78
2022/11/23 11:02:53;;;;;;;5.53;1.90;;;;;;;;;;4944714;29;20682;-78
2022/11/23 11:05:36;;;;;;;2.43;1.83;;;;;;;;;;4937496;28;20233;-79
2022/11/23 11:08:11;;;;;;;5.47;1.97;;;;;;;;;;4950795;28;20689;-78
2022/11/23 11:10:51;;;;;;;1.87;1.57;;;;;;;;;;4932862;28;20234;-79
2022/11/23 11:13:42;;;;;;;4.20;1.70;;;;;;;;;;4939021;28;20225;-77
2022/11/23 11:16:22;;;;;;;2.80;1.53;;;;;;;;;;4938104;28;20317;-80
2022/11/23 11:18:50;;;;;;;3.07;1.80;;;;;;;;;;4950562;28;20286;-79
2022/11/23 11:21:20;;;;;;;2.70;1.80;;;;;;;;;;4912334;28;20705;-81
2022/11/23 11:23:53;;;;;;;1.50;1.40;;;;;;;;;;4947912;28;20234;-80
2022/11/23 11:26:22;;;;;;;3.70;1.90;;;;;;;;;;4930325;28;20217;-80
2022/11/23 11:28:52;;;;;;;2.93;1.90;;;;;;;;;;4910501;28;20245;-81
2022/11/23 11:31:18;;;;;;;2.87;1.90;;;;;;;;;;4901739;28;20229;-77
2022/11/23 11:34:08;;;;;;;4.83;1.97;;;;;;;;;;4963424;28;20317;-78
2022/11/23 11:36:38;;;;;;;2.37;1.70;;;;;;;;;;4926232;28;20234;-79
2022/11/23 11:39:17;;;;;;;2.93;1.80;;;;;;;;;;4934106;28;20221;-82
2022/11/23 11:41:42;;;;;;;4.17;1.80;;;;;;;;;;4964371;28;20230;-77
2022/11/23 11:44:20;;;;;;;2.20;1.60;;;;;;;;;;4933729;28;20226;-81
2022/11/23 11:46:56;;;;;;;2.00;1.70;;;;;;;;;;4941557;28;20229;-78
2022/11/23 11:49:32;;;;;;;2.83;1.60;;;;;;;;;;4933002;28;20424;-83
2022/11/23 11:52:09;;;;;;;3.53;2.00;;;;;;;;;;4952646;28;20226;-79
2022/11/23 11:54:42;;;;;;;4.93;1.87;;;;;;;;;;4935361;28;20592;-79
2022/11/23 11:57:28;;;;;;;4.23;1.80;;;;;;;;;;4933395;28;20235;-79
2022/11/23 11:59:56;;;;;;;3.50;1.83;;;;;;;;;;4934187;28;20226;-83
2022/11/23 12:02:39;;;;;;;2.67;1.57;;;;;;;;;;4924416;28;20225;-83
2022/11/23 12:05:08;;;;;;;3.33;1.77;;;;;;;;;;4940568;28;20346;-81
2022/11/23 12:07:43;;;;;;;3.87;2.10;;;;;;;;;;4951403;28;20975;-83
2022/11/23 12:10:14;;;;;;;1.90;1.40;;;;;;;;;;4945289;28;20249;-85
2022/11/23 12:12:47;;;;;;;2.57;1.57;;;;;;;;;;4939627;28;20230;-83
2022/11/23 12:15:22;;;;;;;3.03;2.07;;;;;;;;;;4941592;28;20228;-81
2022/11/23 12:18:08;;;;;;;2.70;1.70;;;;;;;;;;4945506;28;20257;-79
2022/11/23 12:20:54;;;;;;;3.50;1.73;;;;;;;;;;4966730;28;20230;-77
2022/11/23 12:23:21;;;;;;;3.23;1.50;;;;;;;;;;4943688;28;20704;-79
2022/11/23 12:25:58;;;;;;;2.37;1.63;;;;;;;;;;4950260;28;20230;-82
2022/11/23 12:28:35;;;;;;;3.60;1.80;;;;;;;;;;4938161;28;20238;-77
2022/11/23 12:31:21;;;;;;;1.97;1.70;;;;;;;;;;4944406;28;20246;-81
2022/11/23 12:34:15;;;;;;;1.83;1.67;;;;;;;;;;4928419;28;20225;-79
2022/11/23 12:36:49;;;;;;;3.50;1.60;;;;;;;;;;4951712;28;20223;-78
2022/11/23 12:39:32;;;;;;;3.87;1.80;;;;;;;;;;4948970;28;20246;-79
2022/11/23 12:42:18;;;;;;;4.63;1.90;;;;;;;;;;4938660;28;20225;-77
2022/11/23 12:44:56;;;;;;;2.97;1.73;;;;;;;;;;4947577;28;20374;-79
2022/11/23 12:47:24;;;;;;;2.47;1.57;;;;;;;;;;4954047;28;20226;-83
2022/11/23 12:49:57;;;;;;;6.20;1.80;;;;;;;;;;4943002;28;20222;-76
2022/11/23 12:52:31;;;;;;;2.17;1.37;;;;;;;;;;4945988;28;20657;-78
2022/11/23 12:55:08;;;;;;;2.77;1.83;;;;;;;;;;4928132;28;20223;-82
2022/11/23 12:57:43;;;;;;;2.80;1.83;;;;;;;;;;4947648;28;20237;-80
2022/11/23 13:00:29;;;;;;;2.67;1.70;;;;;;;;;;4911631;28;20217;-79
2022/11/23 13:02:55;;;;;;;2.33;1.50;;;;;;;;;;4938993;28;20223;-80
2022/11/23 13:05:26;;;;;;;2.37;1.70;;;;;;;;;;4940774;28;20223;-79
2022/11/23 13:08:10;;;;;;;2.80;1.50;;;;;;;;;;4961383;28;20337;-79
2022/11/23 13:10:44;;;;;;;3.13;2.20;;;;;;;;;;4964975;28;20230;-78
2022/11/23 13:13:15;;;;;;;3.87;1.90;;;;;;;;;;4962785;28;20233;-79
2022/11/23 13:15:49;;;;;;;2.93;1.80;;;;;;;;;;4961180;28;20713;-79
2022/11/23 13:18:34;;;;;;;3.07;2.00;;;;;;;;;;4929201;28;20244;-80
2022/11/23 13:21:11;;;;;;;2.80;1.73;;;;;;;;;;4947415;28;20222;-81
2022/11/23 13:23:37;;;;;;;2.43;1.50;;;;;;;;;;4963242;28;20237;-82
2022/11/23 13:26:25;;;;;;;2.20;1.50;;;;;;;;;;4916287;28;20306;-81
2022/11/23 13:28:51;;;;;;;2.23;1.87;;;;;;;;;;4939816;28;20226;-80
2022/11/23 13:31:29;;;;;;;3.70;2.30;;;;;;;;;;4916161;28;20270;-82
2022/11/23 13:34:01;;;;;;;4.30;2.00;;;;;;;;;;4924181;28;20289;-80
2022/11/23 13:36:30;;;;;;;2.37;1.63;;;;;;;;;;4938154;28;20306;-81
2022/11/23 13:38:59;;;;;;;3.37;2.00;;;;;;;;;;4960551;28;20285;-80
2022/11/23 13:41:35;;;;;;;4.67;1.60;;;;;;;;;;4947128;28;20223;-81
2022/11/23 13:44:12;;;;;;;3.53;1.87;;;;;;;;;;4951260;28;20229;-80
2022/11/23 13:46:38;;;;;;;3.83;1.60;;;;;;;;;;4960237;28;20230;-80
2022/11/23 13:49:33;;;;;;;3.07;1.40;;;;;;;;;;4936267;28;20806;-80
2022/11/23 13:52:20;;;;;;;5.07;1.63;;;;;;;;;;4932205;28;20225;-78
2022/11/23 13:55:12;;;;;;;3.77;1.57;;;;;;;;;;4945567;28;20230;-79
2022/11/23 13:57:41;;;;;;;3.13;1.33;;;;;;;;;;4951449;28;20414;-78
2022/11/23 14:00:44;;;;;;;3.57;1.33;;;;;;;;;;4932675;28;20608;-80
2022/11/23 14:03:49;;;;;;;2.27;1.20;;;;;;;;;;4955478;28;20222;-78
2022/11/23 14:06:33;;;;;;;4.70;1.37;;;;;;;;;;4966036;28;20599;-79
2022/11/23 14:09:09;;;;;;;4.20;1.53;;;;;;;;;;4952358;28;20237;-79
2022/11/23 14:11:53;;;;;;;2.20;1.50;;;;;;;;;;4954821;28;20310;-80
2022/11/23 14:14:21;;;;;;;2.43;1.60;;;;;;;;;;4954665;28;20211;-79
2022/11/23 14:17:25;;;;;;;2.67;1.33;;;;;;;;;;4912557;28;20655;-79
2022/11/23 14:20:23;;;;;;;4.33;1.67;;;;;;;;;;4928867;28;20608;-78
2022/11/23 14:23:13;;;;;;;2.90;1.37;;;;;;;;;;4957106;28;20230;-76
2022/11/23 14:26:13;;;;;;;3.10;1.43;;;;;;;;;;4943716;28;20222;-77
2022/11/23 14:28:59;;;;;;;2.93;1.37;;;;;;;;;;4945320;28;20240;-77
2022/11/23 14:31:35;;;;;;;2.93;1.23;;;;;;;;;;4943692;28;20230;-76
2022/11/23 14:34:22;;;;;;;4.93;1.60;;;;;;;;;;4923236;28;20233;-76
2022/11/23 14:36:54;;;;;;;3.00;1.70;;;;;;;;;;4931124;28;20728;-76
2022/11/23 14:39:50;;;;;;;4.57;1.37;;;;;;;;;;4942396;28;20226;-75
2022/11/23 14:42:20;;;;;;;2.00;1.13;;;;;;;;;;4947518;28;20227;-75
2022/11/23 14:44:46;;;;;;;2.13;1.20;;;;;;;;;;4926512;28;20772;-74
2022/11/23 14:47:16;;;;;;;1.97;1.20;;;;;;;;;;4918996;28;20242;-76
2022/11/23 14:49:50;;;;;;;1.60;1.13;;;;;;;;;;4934159;28;20235;-78
2022/11/23 14:52:26;;;;;;;2.23;1.33;;;;;;;;;;4926928;28;20230;-77
2022/11/23 14:54:54;;;;;;;2.47;1.30;;;;;;;;;;4927480;28;20222;-78
2022/11/23 14:57:22;;;;;;;2.13;1.60;;;;;;;;;;4927599;28;20218;-75
2022/11/23 14:59:58;;;;;;;3.00;1.30;;;;;;;;;;4933311;28;20237;-79
2022/11/23 15:02:46;;;;;;;2.00;1.40;;;;;;;;;;4922807;28;20305;-78
2022/11/23 15:05:22;;;;;;;1.77;1.40;;;;;;;;;;4926806;28;20218;-78
2022/11/23 15:08:09;;;;;;;2.37;1.33;;;;;;;;;;4934548;28;20689;-77
2022/11/23 15:10:53;;;;;;;3.73;1.67;;;;;;;;;;4959303;28;20254;-76
2022/11/23 15:13:29;;;;;;;2.07;1.40;;;;;;;;;;4957596;28;20314;-78
2022/11/23 15:15:56;;;;;;;3.40;1.30;;;;;;;;;;4926463;28;20250;-75
2022/11/23 15:18:34;;;;;;;5.03;1.40;;;;;;;;;;4929698;28;20254;-77